sensor_id;sensor_type;location;lat;lon;timestamp;temperature;humidity
7900;DHT22;3995;50.856;4.404;2022-11-20T00:00:40;11.50;51.40
7900;DHT22;3995;50.856;4.404;2022-11-20T00:03:09;11.40;51.40
7900;DHT22;3995;50.856;4.404;2022-11-20T00:05:37;11.30;51.40
7900;DHT22;3995;50.856;4.404;2022-11-20T00:08:05;11.40;51.60
7900;DHT22;3995;50.856;4.404;2022-11-20T00:10:32;11.30;51.50
7900;DHT22;3995;50.856;4.404;2022-11-20T00:12:59;11.30;51.40
7900;DHT22;3995;50.856;4.404;2022-11-20T00:15:27;11.30;51.30
7900;DHT22;3995;50.856;4.404;2022-11-20T00:17:54;11.30;51.40
7900;DHT22;3995;50.856;4.404;2022-11-20T00:20:23;11.30;51.50
7900;DHT22;3995;50.856;4.404;2022-11-20T00:22:52;11.40;51.50
7900;DHT22;3995;50.856;4.404;2022-11-20T00:25:19;11.40;51.30
7900;DHT22;3995;50.856;4.404;2022-11-20T00:27:46;11.50;51.20
7900;DHT22;3995;50.856;4.404;2022-11-20T00:30:13;11.50;51.20
7900;DHT22;3995;50.856;4.404;2022-11-20T00:32:42;11.50;51.20
7900;DHT22;3995;50.856;4.404;2022-11-20T00:35:09;11.50;51.30
7900;DHT22;3995;50.856;4.404;2022-11-20T00:37:38;11.60;51.40
7900;DHT22;3995;50.856;4.404;2022-11-20T00:40:07;11.60;51.40
7900;DHT22;3995;50.856;4.404;2022-11-20T00:42:35;11.60;51.40
7900;DHT22;3995;50.856;4.404;2022-11-20T00:45:03;11.60;51.40
7900;DHT22;3995;50.856;4.404;2022-11-20T00:47:30;11.60;51.30
7900;DHT22;3995;50.856;4.404;2022-11-20T00:49:58;11.60;51.30
7900;DHT22;3995;50.856;4.404;2022-11-20T00:52:25;11.50;51.40
7900;DHT22;3995;50.856;4.404;2022-11-20T00:54:55;11.40;51.60
7900;DHT22;3995;50.856;4.404;2022-11-20T00:57:22;11.40;51.80
7900;DHT22;3995;50.856;4.404;2022-11-20T00:59:49;11.40;51.90
7900;DHT22;3995;50.856;4.404;2022-11-20T01:02:16;11.40;51.90
7900;DHT22;3995;50.856;4.404;2022-11-20T01:04:43;11.40;51.90
7900;DHT22;3995;50.856;4.404;2022-11-20T01:07:11;11.50;51.80
7900;DHT22;3995;50.856;4.404;2022-11-20T01:09:39;11.50;51.60
7900;DHT22;3995;50.856;4.404;2022-11-20T01:12:08;11.50;51.70
7900;DHT22;3995;50.856;4.404;2022-11-20T01:14:35;11.50;51.70
7900;DHT22;3995;50.856;4.404;2022-11-20T01:17:02;11.50;51.60
7900;DHT22;3995;50.856;4.404;2022-11-20T01:19:31;11.40;51.60
7900;DHT22;3995;50.856;4.404;2022-11-20T01:21:58;11.40;51.50
7900;DHT22;3995;50.856;4.404;2022-11-20T01:24:25;11.50;51.70
7900;DHT22;3995;50.856;4.404;2022-11-20T01:26:52;11.40;51.60
7900;DHT22;3995;50.856;4.404;2022-11-20T01:29:23;11.50;51.70
7900;DHT22;3995;50.856;4.404;2022-11-20T01:31:51;11.50;51.70
7900;DHT22;3995;50.856;4.404;2022-11-20T01:34:19;11.50;51.80
7900;DHT22;3995;50.856;4.404;2022-11-20T01:36:48;11.50;51.70
7900;DHT22;3995;50.856;4.404;2022-11-20T01:39:17;11.50;51.70
7900;DHT22;3995;50.856;4.404;2022-11-20T01:41:45;11.60;51.80
7900;DHT22;3995;50.856;4.404;2022-11-20T01:44:53;11.60;51.90
7900;DHT22;3995;50.856;4.404;2022-11-20T01:47:34;11.60;51.50
7900;DHT22;3995;50.856;4.404;2022-11-20T01:50:08;11.50;51.70
7900;DHT22;3995;50.856;4.404;2022-11-20T01:52:42;11.40;51.90
7900;DHT22;3995;50.856;4.404;2022-11-20T01:55:14;11.40;52.00
7900;DHT22;3995;50.856;4.404;2022-11-20T01:57:45;11.50;52.00
7900;DHT22;3995;50.856;4.404;2022-11-20T02:00:19;11.50;51.70
7900;DHT22;3995;50.856;4.404;2022-11-20T02:02:49;11.50;51.80
7900;DHT22;3995;50.856;4.404;2022-11-20T02:05:23;11.50;52.00
7900;DHT22;3995;50.856;4.404;2022-11-20T02:07:51;11.50;52.00
7900;DHT22;3995;50.856;4.404;2022-11-20T02:10:19;11.50;51.90
7900;DHT22;3995;50.856;4.404;2022-11-20T02:12:47;11.50;51.80
7900;DHT22;3995;50.856;4.404;2022-11-20T02:15:34;11.60;52.00
7900;DHT22;3995;50.856;4.404;2022-11-20T02:18:01;11.60;52.10
7900;DHT22;3995;50.856;4.404;2022-11-20T02:20:29;11.60;52.10
7900;DHT22;3995;50.856;4.404;2022-11-20T02:22:59;11.60;52.10
7900;DHT22;3995;50.856;4.404;2022-11-20T02:25:32;11.60;52.10
7900;DHT22;3995;50.856;4.404;2022-11-20T02:28:00;11.60;52.20
7900;DHT22;3995;50.856;4.404;2022-11-20T02:30:27;11.60;52.30
7900;DHT22;3995;50.856;4.404;2022-11-20T02:32:55;11.60;52.30
7900;DHT22;3995;50.856;4.404;2022-11-20T02:35:41;11.60;52.30
7900;DHT22;3995;50.856;4.404;2022-11-20T02:38:10;11.70;52.30
7900;DHT22;3995;50.856;4.404;2022-11-20T02:40:39;11.60;52.40
7900;DHT22;3995;50.856;4.404;2022-11-20T02:43:06;11.60;52.40
7900;DHT22;3995;50.856;4.404;2022-11-20T02:45:36;11.60;52.20
7900;DHT22;3995;50.856;4.404;2022-11-20T02:48:05;11.60;52.00
7900;DHT22;3995;50.856;4.404;2022-11-20T02:50:32;11.60;52.00
7900;DHT22;3995;50.856;4.404;2022-11-20T02:53:00;11.50;52.00
7900;DHT22;3995;50.856;4.404;2022-11-20T02:55:27;11.50;52.10
7900;DHT22;3995;50.856;4.404;2022-11-20T02:57:57;11.50;51.90
7900;DHT22;3995;50.856;4.404;2022-11-20T03:00:24;11.50;51.80
7900;DHT22;3995;50.856;4.404;2022-11-20T03:02:52;11.50;51.80
7900;DHT22;3995;50.856;4.404;2022-11-20T03:05:19;11.40;51.80
7900;DHT22;3995;50.856;4.404;2022-11-20T03:07:46;11.40;51.70
7900;DHT22;3995;50.856;4.404;2022-11-20T03:10:14;11.40;51.70
7900;DHT22;3995;50.856;4.404;2022-11-20T03:12:41;11.40;51.80
7900;DHT22;3995;50.856;4.404;2022-11-20T03:15:11;11.40;51.70
7900;DHT22;3995;50.856;4.404;2022-11-20T03:17:39;11.40;51.70
7900;DHT22;3995;50.856;4.404;2022-11-20T03:20:08;11.40;51.60
7900;DHT22;3995;50.856;4.404;2022-11-20T03:22:35;11.40;51.60
7900;DHT22;3995;50.856;4.404;2022-11-20T03:25:03;11.30;51.60
7900;DHT22;3995;50.856;4.404;2022-11-20T03:27:33;11.40;51.40
7900;DHT22;3995;50.856;4.404;2022-11-20T03:30:01;11.30;51.00
7900;DHT22;3995;50.856;4.404;2022-11-20T03:32:30;11.40;51.10
7900;DHT22;3995;50.856;4.404;2022-11-20T03:34:57;11.40;51.00
7900;DHT22;3995;50.856;4.404;2022-11-20T03:37:24;11.30;50.80
7900;DHT22;3995;50.856;4.404;2022-11-20T03:39:52;11.40;50.70
7900;DHT22;3995;50.856;4.404;2022-11-20T03:42:19;11.30;50.50
7900;DHT22;3995;50.856;4.404;2022-11-20T03:45:04;11.30;50.70
7900;DHT22;3995;50.856;4.404;2022-11-20T03:47:33;11.30;50.90
7900;DHT22;3995;50.856;4.404;2022-11-20T03:50:01;11.30;50.50
7900;DHT22;3995;50.856;4.404;2022-11-20T03:52:29;11.40;50.50
7900;DHT22;3995;50.856;4.404;2022-11-20T03:54:56;11.30;50.40
7900;DHT22;3995;50.856;4.404;2022-11-20T03:57:23;11.40;50.50
7900;DHT22;3995;50.856;4.404;2022-11-20T03:59:50;11.40;50.50
7900;DHT22;3995;50.856;4.404;2022-11-20T04:02:18;11.40;50.40
7900;DHT22;3995;50.856;4.404;2022-11-20T04:04:47;11.40;50.50
7900;DHT22;3995;50.856;4.404;2022-11-20T04:07:14;11.40;50.70
7900;DHT22;3995;50.856;4.404;2022-11-20T04:09:41;11.40;50.90
7900;DHT22;3995;50.856;4.404;2022-11-20T04:12:08;11.30;51.00
7900;DHT22;3995;50.856;4.404;2022-11-20T04:14:36;11.40;51.20
7900;DHT22;3995;50.856;4.404;2022-11-20T04:17:04;11.40;51.10
7900;DHT22;3995;50.856;4.404;2022-11-20T04:19:31;11.40;51.10
7900;DHT22;3995;50.856;4.404;2022-11-20T04:22:00;11.40;51.10
7900;DHT22;3995;50.856;4.404;2022-11-20T04:24:27;11.50;51.20
7900;DHT22;3995;50.856;4.404;2022-11-20T04:26:56;11.50;51.20
7900;DHT22;3995;50.856;4.404;2022-11-20T04:29:23;11.40;51.20
7900;DHT22;3995;50.856;4.404;2022-11-20T04:31:51;11.40;51.40
7900;DHT22;3995;50.856;4.404;2022-11-20T04:34:19;11.50;51.50
7900;DHT22;3995;50.856;4.404;2022-11-20T04:36:46;11.40;51.40
7900;DHT22;3995;50.856;4.404;2022-11-20T04:39:15;11.50;51.50
7900;DHT22;3995;50.856;4.404;2022-11-20T04:41:43;11.50;51.60
7900;DHT22;3995;50.856;4.404;2022-11-20T04:44:11;11.50;51.50
7900;DHT22;3995;50.856;4.404;2022-11-20T04:46:40;11.60;51.50
7900;DHT22;3995;50.856;4.404;2022-11-20T04:49:08;11.60;51.60
7900;DHT22;3995;50.856;4.404;2022-11-20T04:51:38;11.60;51.70
7900;DHT22;3995;50.856;4.404;2022-11-20T04:54:05;11.50;51.70
7900;DHT22;3995;50.856;4.404;2022-11-20T04:56:34;11.60;51.80
7900;DHT22;3995;50.856;4.404;2022-11-20T04:59:02;11.60;51.90
7900;DHT22;3995;50.856;4.404;2022-11-20T05:01:29;11.60;51.90
7900;DHT22;3995;50.856;4.404;2022-11-20T05:03:58;11.60;52.00
7900;DHT22;3995;50.856;4.404;2022-11-20T05:06:25;11.60;52.00
7900;DHT22;3995;50.856;4.404;2022-11-20T05:08:52;11.60;52.00
7900;DHT22;3995;50.856;4.404;2022-11-20T05:11:20;11.60;52.10
7900;DHT22;3995;50.856;4.404;2022-11-20T05:13:50;11.60;52.10
7900;DHT22;3995;50.856;4.404;2022-11-20T05:16:20;11.70;52.20
7900;DHT22;3995;50.856;4.404;2022-11-20T05:18:47;11.70;52.20
7900;DHT22;3995;50.856;4.404;2022-11-20T05:21:15;11.70;52.10
7900;DHT22;3995;50.856;4.404;2022-11-20T05:23:43;11.70;52.20
7900;DHT22;3995;50.856;4.404;2022-11-20T05:26:14;11.70;52.20
7900;DHT22;3995;50.856;4.404;2022-11-20T05:28:42;11.70;52.20
7900;DHT22;3995;50.856;4.404;2022-11-20T05:31:13;11.70;52.30
7900;DHT22;3995;50.856;4.404;2022-11-20T05:33:41;11.70;52.30
7900;DHT22;3995;50.856;4.404;2022-11-20T05:36:10;11.70;52.50
7900;DHT22;3995;50.856;4.404;2022-11-20T05:38:42;11.70;52.50
7900;DHT22;3995;50.856;4.404;2022-11-20T05:41:11;11.70;52.60
7900;DHT22;3995;50.856;4.404;2022-11-20T05:43:41;11.70;52.70
7900;DHT22;3995;50.856;4.404;2022-11-20T05:46:11;11.70;52.70
7900;DHT22;3995;50.856;4.404;2022-11-20T05:48:39;11.80;52.70
7900;DHT22;3995;50.856;4.404;2022-11-20T05:51:10;11.80;52.70
7900;DHT22;3995;50.856;4.404;2022-11-20T05:53:37;11.80;52.60
7900;DHT22;3995;50.856;4.404;2022-11-20T05:56:07;11.80;52.60
7900;DHT22;3995;50.856;4.404;2022-11-20T05:58:36;11.80;52.60
7900;DHT22;3995;50.856;4.404;2022-11-20T06:01:05;11.80;52.60
7900;DHT22;3995;50.856;4.404;2022-11-20T06:03:37;11.70;52.90
7900;DHT22;3995;50.856;4.404;2022-11-20T06:06:05;11.60;53.00
7900;DHT22;3995;50.856;4.404;2022-11-20T06:08:35;11.60;53.10
7900;DHT22;3995;50.856;4.404;2022-11-20T06:11:04;11.60;53.20
7900;DHT22;3995;50.856;4.404;2022-11-20T06:13:31;11.50;53.20
7900;DHT22;3995;50.856;4.404;2022-11-20T06:15:59;11.40;53.30
7900;DHT22;3995;50.856;4.404;2022-11-20T06:18:26;11.40;53.60
7900;DHT22;3995;50.856;4.404;2022-11-20T06:21:04;11.40;53.50
7900;DHT22;3995;50.856;4.404;2022-11-20T06:23:33;11.50;53.70
7900;DHT22;3995;50.856;4.404;2022-11-20T06:26:01;11.50;53.60
7900;DHT22;3995;50.856;4.404;2022-11-20T06:28:28;11.50;53.50
7900;DHT22;3995;50.856;4.404;2022-11-20T06:30:56;11.50;53.60
7900;DHT22;3995;50.856;4.404;2022-11-20T06:33:23;11.40;53.70
7900;DHT22;3995;50.856;4.404;2022-11-20T06:35:51;11.40;53.80
7900;DHT22;3995;50.856;4.404;2022-11-20T06:38:20;11.30;53.90
7900;DHT22;3995;50.856;4.404;2022-11-20T06:40:47;11.30;54.00
7900;DHT22;3995;50.856;4.404;2022-11-20T06:43:14;11.30;54.10
7900;DHT22;3995;50.856;4.404;2022-11-20T06:45:42;11.20;54.20
7900;DHT22;3995;50.856;4.404;2022-11-20T06:48:11;11.10;54.40
7900;DHT22;3995;50.856;4.404;2022-11-20T06:50:39;11.20;54.60
7900;DHT22;3995;50.856;4.404;2022-11-20T06:53:06;11.20;54.70
7900;DHT22;3995;50.856;4.404;2022-11-20T06:55:35;11.10;54.70
7900;DHT22;3995;50.856;4.404;2022-11-20T06:58:04;11.20;54.90
7900;DHT22;3995;50.856;4.404;2022-11-20T07:00:31;11.20;54.90
7900;DHT22;3995;50.856;4.404;2022-11-20T07:03:02;11.10;54.90
7900;DHT22;3995;50.856;4.404;2022-11-20T07:05:30;11.20;55.00
7900;DHT22;3995;50.856;4.404;2022-11-20T07:07:57;11.20;55.10
7900;DHT22;3995;50.856;4.404;2022-11-20T07:10:35;11.20;55.10
7900;DHT22;3995;50.856;4.404;2022-11-20T07:13:03;11.10;55.10
7900;DHT22;3995;50.856;4.404;2022-11-20T07:15:32;11.10;55.30
7900;DHT22;3995;50.856;4.404;2022-11-20T07:18:00;11.10;55.30
7900;DHT22;3995;50.856;4.404;2022-11-20T07:20:28;11.20;55.40
7900;DHT22;3995;50.856;4.404;2022-11-20T07:22:56;11.20;55.20
7900;DHT22;3995;50.856;4.404;2022-11-20T07:25:27;11.20;55.20
7900;DHT22;3995;50.856;4.404;2022-11-20T07:28:00;11.10;55.20
7900;DHT22;3995;50.856;4.404;2022-11-20T07:30:27;11.20;55.50
7900;DHT22;3995;50.856;4.404;2022-11-20T07:32:55;11.20;55.50
7900;DHT22;3995;50.856;4.404;2022-11-20T07:35:23;11.10;56.20
7900;DHT22;3995;50.856;4.404;2022-11-20T07:37:51;11.20;55.70
7900;DHT22;3995;50.856;4.404;2022-11-20T07:40:19;11.20;55.80
7900;DHT22;3995;50.856;4.404;2022-11-20T07:42:49;11.20;55.80
7900;DHT22;3995;50.856;4.404;2022-11-20T07:45:18;11.20;55.90
7900;DHT22;3995;50.856;4.404;2022-11-20T07:47:47;11.20;55.90
7900;DHT22;3995;50.856;4.404;2022-11-20T07:50:15;11.20;55.80
7900;DHT22;3995;50.856;4.404;2022-11-20T07:52:43;11.20;55.80
7900;DHT22;3995;50.856;4.404;2022-11-20T07:55:10;11.20;55.90
7900;DHT22;3995;50.856;4.404;2022-11-20T07:57:38;11.20;55.90
7900;DHT22;3995;50.856;4.404;2022-11-20T08:00:08;11.30;56.10
7900;DHT22;3995;50.856;4.404;2022-11-20T08:02:38;11.30;56.10
7900;DHT22;3995;50.856;4.404;2022-11-20T08:05:06;11.30;56.30
7900;DHT22;3995;50.856;4.404;2022-11-20T08:07:37;11.30;56.50
7900;DHT22;3995;50.856;4.404;2022-11-20T08:10:06;11.30;56.60
7900;DHT22;3995;50.856;4.404;2022-11-20T08:12:35;11.20;56.60
7900;DHT22;3995;50.856;4.404;2022-11-20T08:15:19;11.30;56.70
7900;DHT22;3995;50.856;4.404;2022-11-20T08:17:48;11.20;56.70
7900;DHT22;3995;50.856;4.404;2022-11-20T08:20:16;11.30;56.90
7900;DHT22;3995;50.856;4.404;2022-11-20T08:22:43;11.30;57.00
7900;DHT22;3995;50.856;4.404;2022-11-20T08:25:11;11.30;57.20
7900;DHT22;3995;50.856;4.404;2022-11-20T08:27:38;11.30;57.30
7900;DHT22;3995;50.856;4.404;2022-11-20T08:30:08;11.30;57.40
7900;DHT22;3995;50.856;4.404;2022-11-20T08:32:36;11.30;57.50
7900;DHT22;3995;50.856;4.404;2022-11-20T08:35:06;11.30;57.50
7900;DHT22;3995;50.856;4.404;2022-11-20T08:37:34;11.30;57.60
7900;DHT22;3995;50.856;4.404;2022-11-20T08:40:08;11.30;57.70
7900;DHT22;3995;50.856;4.404;2022-11-20T08:42:36;11.30;57.80
7900;DHT22;3995;50.856;4.404;2022-11-20T08:45:04;11.30;57.90
7900;DHT22;3995;50.856;4.404;2022-11-20T08:47:32;11.30;58.00
7900;DHT22;3995;50.856;4.404;2022-11-20T08:50:00;11.30;58.00
7900;DHT22;3995;50.856;4.404;2022-11-20T08:52:30;11.40;58.10
7900;DHT22;3995;50.856;4.404;2022-11-20T08:54:58;11.40;58.20
7900;DHT22;3995;50.856;4.404;2022-11-20T08:57:25;11.40;58.30
7900;DHT22;3995;50.856;4.404;2022-11-20T08:59:53;11.40;58.40
7900;DHT22;3995;50.856;4.404;2022-11-20T09:02:20;11.30;58.40
7900;DHT22;3995;50.856;4.404;2022-11-20T09:04:48;11.40;58.60
7900;DHT22;3995;50.856;4.404;2022-11-20T09:07:15;11.30;58.80
7900;DHT22;3995;50.856;4.404;2022-11-20T09:09:45;11.40;58.90
7900;DHT22;3995;50.856;4.404;2022-11-20T09:12:13;11.40;59.10
7900;DHT22;3995;50.856;4.404;2022-11-20T09:14:40;11.40;59.10
7900;DHT22;3995;50.856;4.404;2022-11-20T09:17:10;11.50;59.10
7900;DHT22;3995;50.856;4.404;2022-11-20T09:19:39;11.50;59.20
7900;DHT22;3995;50.856;4.404;2022-11-20T09:22:07;11.50;59.10
7900;DHT22;3995;50.856;4.404;2022-11-20T09:24:34;11.50;59.20
7900;DHT22;3995;50.856;4.404;2022-11-20T09:27:04;11.60;59.20
7900;DHT22;3995;50.856;4.404;2022-11-20T09:29:33;11.60;59.20
7900;DHT22;3995;50.856;4.404;2022-11-20T09:32:00;11.60;59.30
7900;DHT22;3995;50.856;4.404;2022-11-20T09:34:28;11.60;59.30
7900;DHT22;3995;50.856;4.404;2022-11-20T09:36:55;11.60;59.30
7900;DHT22;3995;50.856;4.404;2022-11-20T09:39:23;11.60;59.40
7900;DHT22;3995;50.856;4.404;2022-11-20T09:42:30;11.70;59.40
7900;DHT22;3995;50.856;4.404;2022-11-20T09:45:11;11.80;59.30
7900;DHT22;3995;50.856;4.404;2022-11-20T09:47:55;11.70;59.50
7900;DHT22;3995;50.856;4.404;2022-11-20T09:50:31;11.80;59.60
7900;DHT22;3995;50.856;4.404;2022-11-20T09:53:14;11.70;59.50
7900;DHT22;3995;50.856;4.404;2022-11-20T09:55:42;11.80;59.50
7900;DHT22;3995;50.856;4.404;2022-11-20T09:58:16;11.70;59.50
7900;DHT22;3995;50.856;4.404;2022-11-20T10:00:47;11.80;59.40
7900;DHT22;3995;50.856;4.404;2022-11-20T10:03:19;11.80;59.60
7900;DHT22;3995;50.856;4.404;2022-11-20T10:05:52;11.80;59.60
7900;DHT22;3995;50.856;4.404;2022-11-20T10:08:23;11.80;59.60
7900;DHT22;3995;50.856;4.404;2022-11-20T10:10:56;11.80;59.70
7900;DHT22;3995;50.856;4.404;2022-11-20T10:13:36;11.90;59.80
7900;DHT22;3995;50.856;4.404;2022-11-20T10:16:18;11.90;59.60
7900;DHT22;3995;50.856;4.404;2022-11-20T10:19:00;11.90;59.60
7900;DHT22;3995;50.856;4.404;2022-11-20T10:21:37;12.00;59.60
7900;DHT22;3995;50.856;4.404;2022-11-20T10:24:26;12.00;59.60
7900;DHT22;3995;50.856;4.404;2022-11-20T10:27:06;12.00;59.60
7900;DHT22;3995;50.856;4.404;2022-11-20T10:29:42;12.00;59.60
7900;DHT22;3995;50.856;4.404;2022-11-20T10:32:13;12.00;59.50
7900;DHT22;3995;50.856;4.404;2022-11-20T10:34:48;12.00;59.40
7900;DHT22;3995;50.856;4.404;2022-11-20T10:37:21;12.10;59.40
7900;DHT22;3995;50.856;4.404;2022-11-20T10:39:54;12.10;59.50
7900;DHT22;3995;50.856;4.404;2022-11-20T10:42:30;12.10;59.40
7900;DHT22;3995;50.856;4.404;2022-11-20T10:45:11;12.20;59.40
7900;DHT22;3995;50.856;4.404;2022-11-20T10:47:42;12.20;59.20
7900;DHT22;3995;50.856;4.404;2022-11-20T10:50:13;12.20;59.20
7900;DHT22;3995;50.856;4.404;2022-11-20T10:52:51;12.30;59.20
7900;DHT22;3995;50.856;4.404;2022-11-20T10:55:29;12.30;59.00
7900;DHT22;3995;50.856;4.404;2022-11-20T10:58:03;12.40;59.00
7900;DHT22;3995;50.856;4.404;2022-11-20T11:00:34;12.40;58.90
7900;DHT22;3995;50.856;4.404;2022-11-20T11:03:01;12.40;58.80
7900;DHT22;3995;50.856;4.404;2022-11-20T11:05:36;12.50;58.90
7900;DHT22;3995;50.856;4.404;2022-11-20T11:08:07;12.50;58.70
7900;DHT22;3995;50.856;4.404;2022-11-20T11:10:43;12.50;58.50
7900;DHT22;3995;50.856;4.404;2022-11-20T11:13:20;12.60;58.30
7900;DHT22;3995;50.856;4.404;2022-11-20T11:15:50;12.60;58.20
7900;DHT22;3995;50.856;4.404;2022-11-20T11:18:25;12.60;58.20
7900;DHT22;3995;50.856;4.404;2022-11-20T11:20:54;12.60;58.00
7900;DHT22;3995;50.856;4.404;2022-11-20T11:23:31;12.60;57.80
7900;DHT22;3995;50.856;4.404;2022-11-20T11:25:59;12.70;57.70
7900;DHT22;3995;50.856;4.404;2022-11-20T11:28:27;12.60;57.80
7900;DHT22;3995;50.856;4.404;2022-11-20T11:30:57;12.60;57.90
7900;DHT22;3995;50.856;4.404;2022-11-20T11:33:26;12.60;57.80
7900;DHT22;3995;50.856;4.404;2022-11-20T11:35:55;12.60;57.80
7900;DHT22;3995;50.856;4.404;2022-11-20T11:38:29;12.60;57.80
7900;DHT22;3995;50.856;4.404;2022-11-20T11:40:58;12.70;57.80
7900;DHT22;3995;50.856;4.404;2022-11-20T11:43:26;12.60;57.70
7900;DHT22;3995;50.856;4.404;2022-11-20T11:46:27;12.60;57.80
7900;DHT22;3995;50.856;4.404;2022-11-20T11:48:57;12.60;58.00
7900;DHT22;3995;50.856;4.404;2022-11-20T11:51:28;12.60;58.30
7900;DHT22;3995;50.856;4.404;2022-11-20T11:53:58;12.60;58.40
7900;DHT22;3995;50.856;4.404;2022-11-20T11:56:28;12.60;58.40
7900;DHT22;3995;50.856;4.404;2022-11-20T11:59:04;12.60;58.50
7900;DHT22;3995;50.856;4.404;2022-11-20T12:01:41;12.60;58.70
7900;DHT22;3995;50.856;4.404;2022-11-20T12:04:14;12.60;58.70
7900;DHT22;3995;50.856;4.404;2022-11-20T12:06:45;12.60;58.60
7900;DHT22;3995;50.856;4.404;2022-11-20T12:09:14;12.60;58.70
7900;DHT22;3995;50.856;4.404;2022-11-20T12:11:46;12.60;58.70
7900;DHT22;3995;50.856;4.404;2022-11-20T12:14:19;12.60;58.60
7900;DHT22;3995;50.856;4.404;2022-11-20T12:16:51;12.60;58.80
7900;DHT22;3995;50.856;4.404;2022-11-20T12:19:21;12.60;58.70
7900;DHT22;3995;50.856;4.404;2022-11-20T12:21:55;12.60;58.70
7900;DHT22;3995;50.856;4.404;2022-11-20T12:24:42;12.60;58.80
7900;DHT22;3995;50.856;4.404;2022-11-20T12:27:38;12.70;59.10
7900;DHT22;3995;50.856;4.404;2022-11-20T12:30:12;12.60;59.20
7900;DHT22;3995;50.856;4.404;2022-11-20T12:35:51;12.60;59.50
7900;DHT22;3995;50.856;4.404;2022-11-20T12:38:39;12.50;59.70
7900;DHT22;3995;50.856;4.404;2022-11-20T12:41:15;12.60;59.80
7900;DHT22;3995;50.856;4.404;2022-11-20T12:44:18;12.50;59.90
7900;DHT22;3995;50.856;4.404;2022-11-20T12:47:16;12.50;60.00
7900;DHT22;3995;50.856;4.404;2022-11-20T12:49:51;12.40;59.90
7900;DHT22;3995;50.856;4.404;2022-11-20T12:52:33;12.40;60.00
7900;DHT22;3995;50.856;4.404;2022-11-20T12:55:23;12.40;60.00
7900;DHT22;3995;50.856;4.404;2022-11-20T12:57:55;12.40;60.20
7900;DHT22;3995;50.856;4.404;2022-11-20T13:00:25;12.30;60.30
7900;DHT22;3995;50.856;4.404;2022-11-20T13:03:12;12.30;60.60
7900;DHT22;3995;50.856;4.404;2022-11-20T13:05:51;12.40;60.50
7900;DHT22;3995;50.856;4.404;2022-11-20T13:08:23;12.30;60.60
7900;DHT22;3995;50.856;4.404;2022-11-20T13:10:56;12.30;60.70
7900;DHT22;3995;50.856;4.404;2022-11-20T13:13:33;12.30;60.60
7900;DHT22;3995;50.856;4.404;2022-11-20T13:16:05;12.40;60.80
7900;DHT22;3995;50.856;4.404;2022-11-20T13:18:38;12.30;60.80
7900;DHT22;3995;50.856;4.404;2022-11-20T13:21:14;12.30;61.00
7900;DHT22;3995;50.856;4.404;2022-11-20T13:23:45;12.30;61.10
7900;DHT22;3995;50.856;4.404;2022-11-20T13:26:16;12.30;61.20
7900;DHT22;3995;50.856;4.404;2022-11-20T13:28:45;12.30;61.30
7900;DHT22;3995;50.856;4.404;2022-11-20T13:31:28;12.30;61.40
7900;DHT22;3995;50.856;4.404;2022-11-20T13:33:56;12.40;61.50
7900;DHT22;3995;50.856;4.404;2022-11-20T13:36:27;12.30;61.60
7900;DHT22;3995;50.856;4.404;2022-11-20T13:38:57;12.30;61.70
7900;DHT22;3995;50.856;4.404;2022-11-20T13:41:27;12.30;61.80
7900;DHT22;3995;50.856;4.404;2022-11-20T13:43:57;12.30;61.90
7900;DHT22;3995;50.856;4.404;2022-11-20T13:46:35;12.30;62.10
7900;DHT22;3995;50.856;4.404;2022-11-20T13:49:07;12.40;62.10
7900;DHT22;3995;50.856;4.404;2022-11-20T13:51:40;12.30;61.90
7900;DHT22;3995;50.856;4.404;2022-11-20T13:57:11;12.30;61.90
7900;DHT22;3995;50.856;4.404;2022-11-20T13:59:51;12.30;62.10
7900;DHT22;3995;50.856;4.404;2022-11-20T14:02:22;12.30;62.20
7900;DHT22;3995;50.856;4.404;2022-11-20T14:04:53;12.30;62.20
7900;DHT22;3995;50.856;4.404;2022-11-20T14:07:24;12.40;62.40
7900;DHT22;3995;50.856;4.404;2022-11-20T14:09:55;12.40;62.30
7900;DHT22;3995;50.856;4.404;2022-11-20T14:12:27;12.40;62.10
7900;DHT22;3995;50.856;4.404;2022-11-20T14:14:55;12.40;62.10
7900;DHT22;3995;50.856;4.404;2022-11-20T14:17:24;12.40;62.10
7900;DHT22;3995;50.856;4.404;2022-11-20T14:20:00;12.50;62.10
7900;DHT22;3995;50.856;4.404;2022-11-20T14:22:28;12.50;61.90
7900;DHT22;3995;50.856;4.404;2022-11-20T14:25:05;12.50;61.80
7900;DHT22;3995;50.856;4.404;2022-11-20T14:27:35;12.60;61.70
7900;DHT22;3995;50.856;4.404;2022-11-20T14:30:04;12.60;61.80
7900;DHT22;3995;50.856;4.404;2022-11-20T14:32:34;12.60;61.70
7900;DHT22;3995;50.856;4.404;2022-11-20T14:35:07;12.60;61.50
7900;DHT22;3995;50.856;4.404;2022-11-20T14:37:38;12.70;61.60
7900;DHT22;3995;50.856;4.404;2022-11-20T14:40:23;12.60;61.40
7900;DHT22;3995;50.856;4.404;2022-11-20T14:42:50;12.70;61.40
7900;DHT22;3995;50.856;4.404;2022-11-20T14:45:18;12.60;61.50
7900;DHT22;3995;50.856;4.404;2022-11-20T14:47:46;12.60;61.50
7900;DHT22;3995;50.856;4.404;2022-11-20T14:50:18;12.70;61.60
7900;DHT22;3995;50.856;4.404;2022-11-20T14:52:53;12.70;61.40
7900;DHT22;3995;50.856;4.404;2022-11-20T14:55:30;12.70;61.50
7900;DHT22;3995;50.856;4.404;2022-11-20T14:57:59;12.70;61.50
7900;DHT22;3995;50.856;4.404;2022-11-20T15:00:27;12.70;61.70
7900;DHT22;3995;50.856;4.404;2022-11-20T15:02:54;12.70;61.80
7900;DHT22;3995;50.856;4.404;2022-11-20T15:05:24;12.70;61.70
7900;DHT22;3995;50.856;4.404;2022-11-20T15:08:04;12.60;61.60
7900;DHT22;3995;50.856;4.404;2022-11-20T15:10:33;12.60;61.70
7900;DHT22;3995;50.856;4.404;2022-11-20T15:13:03;12.60;61.80
7900;DHT22;3995;50.856;4.404;2022-11-20T15:15:43;12.60;61.90
7900;DHT22;3995;50.856;4.404;2022-11-20T15:18:13;12.60;61.70
7900;DHT22;3995;50.856;4.404;2022-11-20T15:20:42;12.60;61.80
7900;DHT22;3995;50.856;4.404;2022-11-20T15:23:11;12.60;61.80
7900;DHT22;3995;50.856;4.404;2022-11-20T15:25:42;12.60;61.80
7900;DHT22;3995;50.856;4.404;2022-11-20T15:28:16;12.60;62.00
7900;DHT22;3995;50.856;4.404;2022-11-20T15:30:45;12.70;62.20
7900;DHT22;3995;50.856;4.404;2022-11-20T15:33:12;12.60;62.10
7900;DHT22;3995;50.856;4.404;2022-11-20T15:35:41;12.60;62.00
7900;DHT22;3995;50.856;4.404;2022-11-20T15:38:09;12.70;62.20
7900;DHT22;3995;50.856;4.404;2022-11-20T15:40:37;12.60;62.10
7900;DHT22;3995;50.856;4.404;2022-11-20T15:43:07;12.70;62.30
7900;DHT22;3995;50.856;4.404;2022-11-20T15:45:37;12.70;62.30
7900;DHT22;3995;50.856;4.404;2022-11-20T15:48:12;12.70;62.30
7900;DHT22;3995;50.856;4.404;2022-11-20T15:50:46;12.70;62.20
7900;DHT22;3995;50.856;4.404;2022-11-20T15:53:16;12.70;62.30
7900;DHT22;3995;50.856;4.404;2022-11-20T15:55:44;12.70;62.30
7900;DHT22;3995;50.856;4.404;2022-11-20T15:58:13;12.70;62.30
7900;DHT22;3995;50.856;4.404;2022-11-20T16:00:42;12.70;62.20
7900;DHT22;3995;50.856;4.404;2022-11-20T16:03:10;12.70;62.10
7900;DHT22;3995;50.856;4.404;2022-11-20T16:05:38;12.70;62.10
7900;DHT22;3995;50.856;4.404;2022-11-20T16:08:07;12.70;62.20
7900;DHT22;3995;50.856;4.404;2022-11-20T16:10:35;12.80;62.30
7900;DHT22;3995;50.856;4.404;2022-11-20T16:13:04;12.80;62.20
7900;DHT22;3995;50.856;4.404;2022-11-20T16:15:55;12.80;62.10
7900;DHT22;3995;50.856;4.404;2022-11-20T16:18:24;12.80;62.10
7900;DHT22;3995;50.856;4.404;2022-11-20T16:20:53;12.80;62.10
7900;DHT22;3995;50.856;4.404;2022-11-20T16:23:21;12.80;61.90
7900;DHT22;3995;50.856;4.404;2022-11-20T16:25:49;12.80;61.90
7900;DHT22;3995;50.856;4.404;2022-11-20T16:28:17;12.80;61.70
7900;DHT22;3995;50.856;4.404;2022-11-20T16:30:45;12.80;61.60